sensor_id;sensor_type;location;lat;lon;timestamp;P1;durP1;ratioP1;P2;durP2;ratioP2
3949;SDS011;53057;50.988;6.314;2023-03-01T00:01:55;30.30;;;15.82;;
3949;SDS011;53057;50.988;6.314;2023-03-01T00:04:21;25.00;;;14.15;;
3949;SDS011;53057;50.988;6.314;2023-03-01T00:06:48;31.77;;;15.95;;
3949;SDS011;53057;50.988;6.314;2023-03-01T00:09:14;23.35;;;15.68;;
3949;SDS011;53057;50.988;6.314;2023-03-01T00:11:41;28.58;;;15.20;;
3949;SDS011;53057;50.988;6.314;2023-03-01T00:14:08;21.75;;;15.80;;
3949;SDS011;53057;50.988;6.314;2023-03-01T00:16:39;23.77;;;15.27;;
3949;SDS011;53057;50.988;6.314;2023-03-01T00:19:13;25.45;;;14.80;;
3949;SDS011;53057;50.988;6.314;2023-03-01T00:21:40;32.88;;;16.30;;
3949;SDS011;53057;50.988;6.314;2023-03-01T00:24:07;35.92;;;15.40;;
3949;SDS011;53057;50.988;6.314;2023-03-01T00:26:33;32.70;;;16.48;;
3949;SDS011;53057;50.988;6.314;2023-03-01T00:29:00;24.10;;;16.95;;
3949;SDS011;53057;50.988;6.314;2023-03-01T00:31:27;30.65;;;15.80;;
3949;SDS011;53057;50.988;6.314;2023-03-01T00:33:56;23.92;;;15.00;;
3949;SDS011;53057;50.988;6.314;2023-03-01T00:36:24;30.10;;;16.10;;
3949;SDS011;53057;50.988;6.314;2023-03-01T00:38:51;27.67;;;16.02;;
3949;SDS011;53057;50.988;6.314;2023-03-01T00:41:21;29.13;;;16.90;;
3949;SDS011;53057;50.988;6.314;2023-03-01T00:43:49;26.85;;;16.00;;
3949;SDS011;53057;50.988;6.314;2023-03-01T00:46:17;24.58;;;16.63;;
3949;SDS011;53057;50.988;6.314;2023-03-01T00:48:44;38.83;;;17.15;;
3949;SDS011;53057;50.988;6.314;2023-03-01T00:51:12;27.55;;;15.23;;
3949;SDS011;53057;50.988;6.314;2023-03-01T00:53:39;29.63;;;17.20;;
3949;SDS011;53057;50.988;6.314;2023-03-01T00:56:06;26.35;;;14.50;;
3949;SDS011;53057;50.988;6.314;2023-03-01T00:58:33;29.55;;;16.20;;
3949;SDS011;53057;50.988;6.314;2023-03-01T01:00:59;24.63;;;16.05;;
3949;SDS011;53057;50.988;6.314;2023-03-01T01:03:26;24.20;;;14.68;;
3949;SDS011;53057;50.988;6.314;2023-03-01T01:05:53;26.88;;;15.98;;
3949;SDS011;53057;50.988;6.314;2023-03-01T01:08:20;22.92;;;14.73;;
3949;SDS011;53057;50.988;6.314;2023-03-01T01:10:47;29.95;;;15.40;;
3949;SDS011;53057;50.988;6.314;2023-03-01T01:13:14;21.27;;;14.27;;
3949;SDS011;53057;50.988;6.314;2023-03-01T01:15:40;33.63;;;17.25;;
3949;SDS011;53057;50.988;6.314;2023-03-01T01:18:07;29.50;;;17.15;;
3949;SDS011;53057;50.988;6.314;2023-03-01T01:20:34;34.65;;;16.33;;
3949;SDS011;53057;50.988;6.314;2023-03-01T01:23:01;32.85;;;16.58;;
3949;SDS011;53057;50.988;6.314;2023-03-01T01:25:28;33.17;;;17.95;;
3949;SDS011;53057;50.988;6.314;2023-03-01T01:27:54;22.00;;;14.75;;
3949;SDS011;53057;50.988;6.314;2023-03-01T01:30:21;33.95;;;17.45;;
3949;SDS011;53057;50.988;6.314;2023-03-01T01:32:47;32.00;;;16.88;;
3949;SDS011;53057;50.988;6.314;2023-03-01T01:35:14;28.90;;;17.60;;
3949;SDS011;53057;50.988;6.314;2023-03-01T01:37:40;40.63;;;17.88;;
3949;SDS011;53057;50.988;6.314;2023-03-01T01:40:08;28.15;;;17.23;;
3949;SDS011;53057;50.988;6.314;2023-03-01T01:42:35;35.30;;;16.90;;
3949;SDS011;53057;50.988;6.314;2023-03-01T01:47:48;31.23;;;16.90;;
3949;SDS011;53057;50.988;6.314;2023-03-01T01:50:15;32.70;;;17.65;;
3949;SDS011;53057;50.988;6.314;2023-03-01T01:52:44;35.50;;;18.00;;
3949;SDS011;53057;50.988;6.314;2023-03-01T01:55:16;33.10;;;17.55;;
3949;SDS011;53057;50.988;6.314;2023-03-01T01:57:48;32.30;;;20.02;;
3949;SDS011;53057;50.988;6.314;2023-03-01T02:00:17;34.55;;;19.45;;
3949;SDS011;53057;50.988;6.314;2023-03-01T02:02:45;31.00;;;18.52;;
3949;SDS011;53057;50.988;6.314;2023-03-01T02:05:24;30.90;;;20.20;;
3949;SDS011;53057;50.988;6.314;2023-03-01T02:07:52;33.38;;;19.05;;
3949;SDS011;53057;50.988;6.314;2023-03-01T02:10:21;48.97;;;22.05;;
3949;SDS011;53057;50.988;6.314;2023-03-01T02:12:47;30.52;;;18.55;;
3949;SDS011;53057;50.988;6.314;2023-03-01T02:15:14;33.72;;;20.58;;
3949;SDS011;53057;50.988;6.314;2023-03-01T02:17:41;41.65;;;20.92;;
3949;SDS011;53057;50.988;6.314;2023-03-01T02:20:14;34.75;;;18.75;;
3949;SDS011;53057;50.988;6.314;2023-03-01T02:22:43;39.60;;;20.85;;
3949;SDS011;53057;50.988;6.314;2023-03-01T02:27:58;32.40;;;19.75;;
3949;SDS011;53057;50.988;6.314;2023-03-01T02:30:26;39.17;;;20.60;;
3949;SDS011;53057;50.988;6.314;2023-03-01T02:32:54;39.78;;;20.10;;
3949;SDS011;53057;50.988;6.314;2023-03-01T02:35:25;32.53;;;19.65;;
3949;SDS011;53057;50.988;6.314;2023-03-01T02:37:52;36.95;;;20.17;;
3949;SDS011;53057;50.988;6.314;2023-03-01T02:40:23;41.33;;;18.60;;
3949;SDS011;53057;50.988;6.314;2023-03-01T02:42:51;28.85;;;18.80;;
3949;SDS011;53057;50.988;6.314;2023-03-01T02:45:20;34.88;;;20.15;;
3949;SDS011;53057;50.988;6.314;2023-03-01T02:47:46;42.28;;;19.80;;
3949;SDS011;53057;50.988;6.314;2023-03-01T02:55:22;32.75;;;20.80;;
3949;SDS011;53057;50.988;6.314;2023-03-01T02:57:48;31.77;;;18.60;;
3949;SDS011;53057;50.988;6.314;2023-03-01T03:00:19;30.67;;;19.92;;
3949;SDS011;53057;50.988;6.314;2023-03-01T03:02:50;38.70;;;22.33;;
3949;SDS011;53057;50.988;6.314;2023-03-01T03:05:19;33.72;;;20.15;;
3949;SDS011;53057;50.988;6.314;2023-03-01T03:07:48;45.53;;;21.58;;
3949;SDS011;53057;50.988;6.314;2023-03-01T03:10:22;35.05;;;22.42;;
3949;SDS011;53057;50.988;6.314;2023-03-01T03:12:50;44.47;;;23.08;;
3949;SDS011;53057;50.988;6.314;2023-03-01T03:15:17;43.03;;;21.98;;
3949;SDS011;53057;50.988;6.314;2023-03-01T03:17:44;34.90;;;21.38;;
3949;SDS011;53057;50.988;6.314;2023-03-01T03:20:12;39.25;;;22.20;;
3949;SDS011;53057;50.988;6.314;2023-03-01T03:22:39;37.17;;;22.02;;
3949;SDS011;53057;50.988;6.314;2023-03-01T03:25:06;41.97;;;21.58;;
3949;SDS011;53057;50.988;6.314;2023-03-01T03:27:37;39.63;;;22.60;;
3949;SDS011;53057;50.988;6.314;2023-03-01T03:30:04;36.33;;;21.80;;
3949;SDS011;53057;50.988;6.314;2023-03-01T03:32:35;46.08;;;21.23;;
3949;SDS011;53057;50.988;6.314;2023-03-01T03:35:03;50.70;;;24.75;;
3949;SDS011;53057;50.988;6.314;2023-03-01T03:37:36;40.90;;;22.75;;
3949;SDS011;53057;50.988;6.314;2023-03-01T03:40:21;44.08;;;23.88;;
3949;SDS011;53057;50.988;6.314;2023-03-01T03:42:48;41.38;;;22.80;;
3949;SDS011;53057;50.988;6.314;2023-03-01T03:45:16;39.92;;;23.90;;
3949;SDS011;53057;50.988;6.314;2023-03-01T03:47:43;40.50;;;24.40;;
3949;SDS011;53057;50.988;6.314;2023-03-01T03:50:14;40.97;;;22.77;;
3949;SDS011;53057;50.988;6.314;2023-03-01T03:52:41;43.05;;;21.63;;
3949;SDS011;53057;50.988;6.314;2023-03-01T03:55:08;54.13;;;24.75;;
3949;SDS011;53057;50.988;6.314;2023-03-01T03:57:39;39.92;;;22.38;;
3949;SDS011;53057;50.988;6.314;2023-03-01T04:00:10;49.55;;;25.63;;
3949;SDS011;53057;50.988;6.314;2023-03-01T04:02:41;43.15;;;25.38;;
3949;SDS011;53057;50.988;6.314;2023-03-01T04:05:08;52.97;;;26.52;;
3949;SDS011;53057;50.988;6.314;2023-03-01T04:07:35;46.40;;;25.70;;
3949;SDS011;53057;50.988;6.314;2023-03-01T04:10:02;34.47;;;23.17;;
3949;SDS011;53057;50.988;6.314;2023-03-01T04:12:29;46.22;;;25.27;;
3949;SDS011;53057;50.988;6.314;2023-03-01T04:14:56;44.05;;;25.48;;
3949;SDS011;53057;50.988;6.314;2023-03-01T04:17:22;61.88;;;29.80;;
3949;SDS011;53057;50.988;6.314;2023-03-01T04:19:49;49.33;;;26.80;;
3949;SDS011;53057;50.988;6.314;2023-03-01T04:22:15;53.90;;;27.38;;
3949;SDS011;53057;50.988;6.314;2023-03-01T04:24:44;43.35;;;26.10;;
3949;SDS011;53057;50.988;6.314;2023-03-01T04:27:11;49.70;;;27.35;;
3949;SDS011;53057;50.988;6.314;2023-03-01T04:29:37;44.03;;;24.60;;
3949;SDS011;53057;50.988;6.314;2023-03-01T04:32:04;37.03;;;23.25;;
3949;SDS011;53057;50.988;6.314;2023-03-01T04:34:31;41.75;;;24.00;;
3949;SDS011;53057;50.988;6.314;2023-03-01T04:36:57;42.15;;;25.83;;
3949;SDS011;53057;50.988;6.314;2023-03-01T04:39:24;44.80;;;26.77;;
3949;SDS011;53057;50.988;6.314;2023-03-01T04:41:50;40.38;;;24.95;;
3949;SDS011;53057;50.988;6.314;2023-03-01T04:44:17;47.85;;;24.25;;
3949;SDS011;53057;50.988;6.314;2023-03-01T04:46:44;37.45;;;20.70;;
3949;SDS011;53057;50.988;6.314;2023-03-01T04:49:10;49.70;;;27.33;;
3949;SDS011;53057;50.988;6.314;2023-03-01T04:51:37;45.78;;;24.60;;
3949;SDS011;53057;50.988;6.314;2023-03-01T04:54:04;38.05;;;23.60;;
3949;SDS011;53057;50.988;6.314;2023-03-01T04:56:34;51.22;;;26.60;;
3949;SDS011;53057;50.988;6.314;2023-03-01T04:59:01;49.33;;;27.08;;
3949;SDS011;53057;50.988;6.314;2023-03-01T05:01:31;43.55;;;24.95;;
3949;SDS011;53057;50.988;6.314;2023-03-01T05:03:58;44.83;;;26.40;;
3949;SDS011;53057;50.988;6.314;2023-03-01T05:06:29;44.45;;;24.83;;
3949;SDS011;53057;50.988;6.314;2023-03-01T05:08:56;50.63;;;26.73;;
3949;SDS011;53057;50.988;6.314;2023-03-01T05:11:22;52.88;;;25.88;;
3949;SDS011;53057;50.988;6.314;2023-03-01T05:13:49;50.92;;;28.20;;
3949;SDS011;53057;50.988;6.314;2023-03-01T05:16:21;45.15;;;26.33;;
3949;SDS011;53057;50.988;6.314;2023-03-01T05:18:47;49.22;;;28.00;;
3949;SDS011;53057;50.988;6.314;2023-03-01T05:21:16;45.40;;;26.98;;
3949;SDS011;53057;50.988;6.314;2023-03-01T05:23:43;56.08;;;29.45;;
3949;SDS011;53057;50.988;6.314;2023-03-01T05:26:10;48.40;;;26.67;;
3949;SDS011;53057;50.988;6.314;2023-03-01T05:28:53;51.47;;;30.00;;
3949;SDS011;53057;50.988;6.314;2023-03-01T05:31:24;44.83;;;25.10;;
3949;SDS011;53057;50.988;6.314;2023-03-01T05:33:51;61.92;;;27.25;;
3949;SDS011;53057;50.988;6.314;2023-03-01T05:36:19;65.75;;;31.55;;
3949;SDS011;53057;50.988;6.314;2023-03-01T05:38:45;47.85;;;27.08;;
3949;SDS011;53057;50.988;6.314;2023-03-01T05:41:15;50.10;;;28.08;;
3949;SDS011;53057;50.988;6.314;2023-03-01T05:43:43;47.50;;;28.10;;
3949;SDS011;53057;50.988;6.314;2023-03-01T05:46:11;46.05;;;27.10;;
3949;SDS011;53057;50.988;6.314;2023-03-01T05:48:39;58.45;;;28.70;;
3949;SDS011;53057;50.988;6.314;2023-03-01T05:51:06;49.28;;;28.42;;
3949;SDS011;53057;50.988;6.314;2023-03-01T05:53:33;71.55;;;30.00;;
3949;SDS011;53057;50.988;6.314;2023-03-01T05:56:02;61.00;;;29.83;;
3949;SDS011;53057;50.988;6.314;2023-03-01T05:58:29;51.90;;;26.95;;
3949;SDS011;53057;50.988;6.314;2023-03-01T06:00:55;58.08;;;29.00;;
3949;SDS011;53057;50.988;6.314;2023-03-01T06:03:22;51.95;;;27.52;;
3949;SDS011;53057;50.988;6.314;2023-03-01T06:05:49;53.65;;;27.35;;
3949;SDS011;53057;50.988;6.314;2023-03-01T06:08:15;67.75;;;29.42;;
3949;SDS011;53057;50.988;6.314;2023-03-01T06:10:42;53.55;;;28.75;;
3949;SDS011;53057;50.988;6.314;2023-03-01T06:13:08;52.45;;;28.58;;
3949;SDS011;53057;50.988;6.314;2023-03-01T06:15:35;45.97;;;27.70;;
3949;SDS011;53057;50.988;6.314;2023-03-01T06:18:01;47.03;;;27.30;;
3949;SDS011;53057;50.988;6.314;2023-03-01T06:20:28;49.25;;;27.90;;
3949;SDS011;53057;50.988;6.314;2023-03-01T06:22:55;47.55;;;29.08;;
3949;SDS011;53057;50.988;6.314;2023-03-01T06:25:22;46.08;;;27.00;;
3949;SDS011;53057;50.988;6.314;2023-03-01T06:27:49;47.03;;;25.05;;
3949;SDS011;53057;50.988;6.314;2023-03-01T06:30:17;47.22;;;26.85;;
3949;SDS011;53057;50.988;6.314;2023-03-01T06:32:44;54.28;;;29.35;;
3949;SDS011;53057;50.988;6.314;2023-03-01T06:35:11;52.35;;;29.08;;
3949;SDS011;53057;50.988;6.314;2023-03-01T06:37:39;53.28;;;27.98;;
3949;SDS011;53057;50.988;6.314;2023-03-01T06:40:06;42.03;;;25.65;;
3949;SDS011;53057;50.988;6.314;2023-03-01T06:42:35;48.72;;;28.25;;
3949;SDS011;53057;50.988;6.314;2023-03-01T06:45:01;44.00;;;26.48;;
3949;SDS011;53057;50.988;6.314;2023-03-01T06:47:29;50.92;;;25.60;;
3949;SDS011;53057;50.988;6.314;2023-03-01T06:49:55;41.67;;;23.75;;
3949;SDS011;53057;50.988;6.314;2023-03-01T06:52:22;39.90;;;22.88;;
3949;SDS011;53057;50.988;6.314;2023-03-01T06:54:49;39.92;;;22.10;;
3949;SDS011;53057;50.988;6.314;2023-03-01T06:57:16;39.42;;;21.80;;
3949;SDS011;53057;50.988;6.314;2023-03-01T06:59:42;29.13;;;19.75;;
3949;SDS011;53057;50.988;6.314;2023-03-01T07:02:10;32.40;;;19.58;;
3949;SDS011;53057;50.988;6.314;2023-03-01T07:04:36;28.23;;;17.48;;
3949;SDS011;53057;50.988;6.314;2023-03-01T07:07:03;30.13;;;17.35;;
3949;SDS011;53057;50.988;6.314;2023-03-01T07:09:29;27.00;;;17.08;;
3949;SDS011;53057;50.988;6.314;2023-03-01T07:11:56;28.73;;;18.75;;
3949;SDS011;53057;50.988;6.314;2023-03-01T07:14:23;35.22;;;18.73;;
3949;SDS011;53057;50.988;6.314;2023-03-01T07:16:53;32.95;;;18.67;;
3949;SDS011;53057;50.988;6.314;2023-03-01T07:19:19;38.90;;;17.88;;
3949;SDS011;53057;50.988;6.314;2023-03-01T07:21:46;26.85;;;16.58;;
3949;SDS011;53057;50.988;6.314;2023-03-01T07:24:13;32.72;;;18.15;;
3949;SDS011;53057;50.988;6.314;2023-03-01T07:26:40;39.63;;;18.65;;
3949;SDS011;53057;50.988;6.314;2023-03-01T07:29:07;37.38;;;19.48;;
3949;SDS011;53057;50.988;6.314;2023-03-01T07:31:33;37.15;;;18.88;;
3949;SDS011;53057;50.988;6.314;2023-03-01T07:34:00;30.70;;;20.38;;
3949;SDS011;53057;50.988;6.314;2023-03-01T07:36:27;30.92;;;20.13;;
3949;SDS011;53057;50.988;6.314;2023-03-01T07:38:53;38.17;;;18.20;;
3949;SDS011;53057;50.988;6.314;2023-03-01T07:41:22;31.10;;;16.98;;
3949;SDS011;53057;50.988;6.314;2023-03-01T07:43:48;46.30;;;18.83;;
3949;SDS011;53057;50.988;6.314;2023-03-01T07:46:15;27.20;;;17.52;;
3949;SDS011;53057;50.988;6.314;2023-03-01T07:48:41;40.05;;;17.35;;
3949;SDS011;53057;50.988;6.314;2023-03-01T07:51:09;29.83;;;18.38;;
3949;SDS011;53057;50.988;6.314;2023-03-01T07:53:36;32.28;;;18.05;;
3949;SDS011;53057;50.988;6.314;2023-03-01T07:58:36;28.00;;;18.65;;
3949;SDS011;53057;50.988;6.314;2023-03-01T08:01:04;31.73;;;18.92;;
3949;SDS011;53057;50.988;6.314;2023-03-01T08:03:31;36.17;;;20.98;;
3949;SDS011;53057;50.988;6.314;2023-03-01T08:06:01;28.95;;;17.95;;
3949;SDS011;53057;50.988;6.314;2023-03-01T08:08:28;29.00;;;17.58;;
3949;SDS011;53057;50.988;6.314;2023-03-01T08:10:58;29.10;;;17.15;;
3949;SDS011;53057;50.988;6.314;2023-03-01T08:13:26;30.30;;;18.33;;
3949;SDS011;53057;50.988;6.314;2023-03-01T08:15:52;29.92;;;16.83;;
3949;SDS011;53057;50.988;6.314;2023-03-01T08:18:20;27.33;;;18.30;;
3949;SDS011;53057;50.988;6.314;2023-03-01T08:20:47;25.20;;;18.17;;
3949;SDS011;53057;50.988;6.314;2023-03-01T08:23:14;34.92;;;17.75;;
3949;SDS011;53057;50.988;6.314;2023-03-01T08:25:41;24.50;;;16.93;;
3949;SDS011;53057;50.988;6.314;2023-03-01T08:28:07;29.20;;;18.83;;
3949;SDS011;53057;50.988;6.314;2023-03-01T08:30:34;30.58;;;16.95;;
3949;SDS011;53057;50.988;6.314;2023-03-01T08:33:01;33.73;;;18.00;;
3949;SDS011;53057;50.988;6.314;2023-03-01T08:35:27;28.70;;;17.60;;
3949;SDS011;53057;50.988;6.314;2023-03-01T08:37:54;26.80;;;17.13;;
3949;SDS011;53057;50.988;6.314;2023-03-01T08:40:21;30.70;;;17.20;;
3949;SDS011;53057;50.988;6.314;2023-03-01T08:42:47;23.63;;;17.80;;
3949;SDS011;53057;50.988;6.314;2023-03-01T08:45:14;32.43;;;17.80;;
3949;SDS011;53057;50.988;6.314;2023-03-01T08:47:44;27.90;;;18.80;;
3949;SDS011;53057;50.988;6.314;2023-03-01T08:50:11;26.20;;;18.33;;
3949;SDS011;53057;50.988;6.314;2023-03-01T08:52:38;26.20;;;17.20;;
3949;SDS011;53057;50.988;6.314;2023-03-01T08:55:04;25.60;;;17.30;;
3949;SDS011;53057;50.988;6.314;2023-03-01T08:57:31;26.67;;;18.70;;
3949;SDS011;53057;50.988;6.314;2023-03-01T08:59:58;35.37;;;18.10;;
3949;SDS011;53057;50.988;6.314;2023-03-01T09:02:24;34.90;;;17.60;;
3949;SDS011;53057;50.988;6.314;2023-03-01T09:04:51;30.87;;;19.50;;
3949;SDS011;53057;50.988;6.314;2023-03-01T09:07:17;26.80;;;17.07;;
3949;SDS011;53057;50.988;6.314;2023-03-01T09:09:44;26.13;;;17.63;;
3949;SDS011;53057;50.988;6.314;2023-03-01T09:12:11;40.87;;;19.07;;
3949;SDS011;53057;50.988;6.314;2023-03-01T09:14:37;32.67;;;18.40;;
3949;SDS011;53057;50.988;6.314;2023-03-01T09:17:05;31.93;;;19.00;;
3949;SDS011;53057;50.988;6.314;2023-03-01T09:19:31;27.53;;;17.37;;
3949;SDS011;53057;50.988;6.314;2023-03-01T09:21:58;28.57;;;18.50;;
3949;SDS011;53057;50.988;6.314;2023-03-01T09:24:25;33.87;;;17.60;;
3949;SDS011;53057;50.988;6.314;2023-03-01T09:26:55;28.23;;;17.30;;
3949;SDS011;53057;50.988;6.314;2023-03-01T09:29:22;32.07;;;19.37;;
3949;SDS011;53057;50.988;6.314;2023-03-01T09:31:49;41.10;;;19.47;;
3949;SDS011;53057;50.988;6.314;2023-03-01T09:34:15;35.13;;;17.83;;
3949;SDS011;53057;50.988;6.314;2023-03-01T09:36:45;30.00;;;18.20;;
3949;SDS011;53057;50.988;6.314;2023-03-01T09:39:12;37.00;;;18.00;;
3949;SDS011;53057;50.988;6.314;2023-03-01T09:46:53;26.90;;;18.53;;
3949;SDS011;53057;50.988;6.314;2023-03-01T09:49:30;38.00;;;18.93;;
3949;SDS011;53057;50.988;6.314;2023-03-01T09:54:29;25.53;;;18.30;;
3949;SDS011;53057;50.988;6.314;2023-03-01T09:57:07;32.03;;;18.60;;
3949;SDS011;53057;50.988;6.314;2023-03-01T09:59:53;25.20;;;14.07;;
3949;SDS011;53057;50.988;6.314;2023-03-01T10:02:23;32.97;;;18.63;;
3949;SDS011;53057;50.988;6.314;2023-03-01T10:05:10;35.73;;;20.20;;
3949;SDS011;53057;50.988;6.314;2023-03-01T10:10:07;33.60;;;19.07;;
3949;SDS011;53057;50.988;6.314;2023-03-01T10:12:40;28.10;;;17.80;;
3949;SDS011;53057;50.988;6.314;2023-03-01T10:15:11;22.40;;;14.10;;
3949;SDS011;53057;50.988;6.314;2023-03-01T10:17:48;26.27;;;17.10;;
3949;SDS011;53057;50.988;6.314;2023-03-01T10:20:21;28.83;;;19.73;;
3949;SDS011;53057;50.988;6.314;2023-03-01T10:22:48;28.37;;;18.90;;
3949;SDS011;53057;50.988;6.314;2023-03-01T10:28:10;24.40;;;19.70;;
3949;SDS011;53057;50.988;6.314;2023-03-01T10:30:42;29.83;;;13.60;;
3949;SDS011;53057;50.988;6.314;2023-03-01T10:33:17;26.60;;;17.90;;
3949;SDS011;53057;50.988;6.314;2023-03-01T10:35:45;30.63;;;18.00;;
3949;SDS011;53057;50.988;6.314;2023-03-01T10:38:13;29.03;;;17.30;;
3949;SDS011;53057;50.988;6.314;2023-03-01T10:40:50;30.00;;;19.40;;
3949;SDS011;53057;50.988;6.314;2023-03-01T10:43:17;27.23;;;18.00;;
3949;SDS011;53057;50.988;6.314;2023-03-01T10:45:44;16.03;;;10.87;;
3949;SDS011;53057;50.988;6.314;2023-03-01T10:50:40;27.13;;;18.43;;
3949;SDS011;53057;50.988;6.314;2023-03-01T10:53:16;27.40;;;18.00;;
3949;SDS011;53057;50.988;6.314;2023-03-01T10:55:46;28.87;;;17.27;;
3949;SDS011;53057;50.988;6.314;2023-03-01T11:00:53;40.60;;;20.70;;
3949;SDS011;53057;50.988;6.314;2023-03-01T11:03:21;29.23;;;19.47;;
3949;SDS011;53057;50.988;6.314;2023-03-01T11:05:59;34.33;;;18.60;;
3949;SDS011;53057;50.988;6.314;2023-03-01T11:11:06;25.43;;;16.50;;
3949;SDS011;53057;50.988;6.314;2023-03-01T11:13:33;25.30;;;16.17;;
3949;SDS011;53057;50.988;6.314;2023-03-01T11:16:00;23.57;;;15.27;;
3949;SDS011;53057;50.988;6.314;2023-03-01T11:18:28;28.70;;;18.77;;
3949;SDS011;53057;50.988;6.314;2023-03-01T11:21:12;25.87;;;16.83;;
3949;SDS011;53057;50.988;6.314;2023-03-01T11:23:39;18.43;;;11.10;;
3949;SDS011;53057;50.988;6.314;2023-03-01T11:26:07;18.97;;;11.77;;
3949;SDS011;53057;50.988;6.314;2023-03-01T11:28:37;25.00;;;16.23;;
3949;SDS011;53057;50.988;6.314;2023-03-01T11:31:06;26.33;;;17.07;;
3949;SDS011;53057;50.988;6.314;2023-03-01T11:36:03;27.20;;;15.20;;
3949;SDS011;53057;50.988;6.314;2023-03-01T11:38:32;23.60;;;11.80;;
3949;SDS011;53057;50.988;6.314;2023-03-01T11:41:08;23.70;;;14.77;;
3949;SDS011;53057;50.988;6.314;2023-03-01T11:51:25;15.43;;;9.93;;
3949;SDS011;53057;50.988;6.314;2023-03-01T11:54:03;23.00;;;17.00;;
3949;SDS011;53057;50.988;6.314;2023-03-01T11:56:32;23.13;;;18.00;;
3949;SDS011;53057;50.988;6.314;2023-03-01T12:01:49;19.93;;;14.00;;
3949;SDS011;53057;50.988;6.314;2023-03-01T12:17:01;30.67;;;17.80;;
3949;SDS011;53057;50.988;6.314;2023-03-01T12:24:54;25.97;;;16.97;;
3949;SDS011;53057;50.988;6.314;2023-03-01T12:27:27;27.40;;;16.60;;
3949;SDS011;53057;50.988;6.314;2023-03-01T12:32:43;21.47;;;14.80;;
3949;SDS011;53057;50.988;6.314;2023-03-01T12:35:19;26.07;;;17.90;;
3949;SDS011;53057;50.988;6.314;2023-03-01T12:40:29;24.93;;;15.90;;
3949;SDS011;53057;50.988;6.314;2023-03-01T12:50:46;23.10;;;16.37;;
3949;SDS011;53057;50.988;6.314;2023-03-01T12:53:47;22.80;;;14.97;;
3949;SDS011;53057;50.988;6.314;2023-03-01T12:56:07;24.87;;;16.70;;
3949;SDS011;53057;50.988;6.314;2023-03-01T12:58:41;20.57;;;15.20;;
3949;SDS011;53057;50.988;6.314;2023-03-01T13:01:19;25.53;;;16.67;;
3949;SDS011;53057;50.988;6.314;2023-03-01T13:09:23;27.43;;;16.70;;
3949;SDS011;53057;50.988;6.314;2023-03-01T13:11:52;21.47;;;14.17;;
3949;SDS011;53057;50.988;6.314;2023-03-01T13:16:52;20.63;;;15.13;;
3949;SDS011;53057;50.988;6.314;2023-03-01T13:19:20;22.90;;;16.07;;
3949;SDS011;53057;50.988;6.314;2023-03-01T13:21:48;22.33;;;15.77;;
3949;SDS011;53057;50.988;6.314;2023-03-01T13:32:31;23.77;;;15.77;;
3949;SDS011;53057;50.988;6.314;2023-03-01T13:37:45;21.60;;;15.63;;
3949;SDS011;53057;50.988;6.314;2023-03-01T13:42:45;20.30;;;16.20;;
3949;SDS011;53057;50.988;6.314;2023-03-01T13:47:56;17.23;;;13.77;;
3949;SDS011;53057;50.988;6.314;2023-03-01T13:50:25;15.23;;;12.93;;
3949;SDS011;53057;50.988;6.314;2023-03-01T13:52:55;19.40;;;13.50;;
3949;SDS011;53057;50.988;6.314;2023-03-01T13:55:38;18.90;;;12.77;;
3949;SDS011;53057;50.988;6.314;2023-03-01T13:58:15;35.17;;;11.70;;
3949;SDS011;53057;50.988;6.314;2023-03-01T14:00:42;18.47;;;12.60;;
3949;SDS011;53057;50.988;6.314;2023-03-01T14:03:16;15.67;;;11.67;;
3949;SDS011;53057;50.988;6.314;2023-03-01T14:05:59;21.73;;;10.73;;
3949;SDS011;53057;50.988;6.314;2023-03-01T14:08:40;16.57;;;10.50;;
3949;SDS011;53057;50.988;6.314;2023-03-01T14:11:30;15.40;;;11.30;;
3949;SDS011;53057;50.988;6.314;2023-03-01T14:14:25;20.33;;;12.97;;
3949;SDS011;53057;50.988;6.314;2023-03-01T14:19:32;13.10;;;11.60;;
3949;SDS011;53057;50.988;6.314;2023-03-01T14:24:31;12.80;;;10.80;;
3949;SDS011;53057;50.988;6.314;2023-03-01T14:27:00;18.80;;;10.60;;
3949;SDS011;53057;50.988;6.314;2023-03-01T14:29:32;14.07;;;10.43;;
3949;SDS011;53057;50.988;6.314;2023-03-01T14:32:19;14.50;;;11.30;;
3949;SDS011;53057;50.988;6.314;2023-03-01T14:34:47;18.77;;;11.23;;
3949;SDS011;53057;50.988;6.314;2023-03-01T14:37:30;11.73;;;10.00;;
3949;SDS011;53057;50.988;6.314;2023-03-01T14:39:58;14.00;;;10.20;;
3949;SDS011;53057;50.988;6.314;2023-03-01T14:42:25;16.77;;;11.37;;
3949;SDS011;53057;50.988;6.314;2023-03-01T14:44:54;16.20;;;10.50;;
3949;SDS011;53057;50.988;6.314;2023-03-01T14:47:31;17.27;;;11.40;;
3949;SDS011;53057;50.988;6.314;2023-03-01T14:50:02;13.63;;;10.30;;
3949;SDS011;53057;50.988;6.314;2023-03-01T14:52:35;16.20;;;11.20;;
3949;SDS011;53057;50.988;6.314;2023-03-01T14:55:04;13.63;;;10.40;;
3949;SDS011;53057;50.988;6.314;2023-03-01T14:57:31;12.20;;;10.00;;
3949;SDS011;53057;50.988;6.314;2023-03-01T14:59:59;18.30;;;10.80;;
3949;SDS011;53057;50.988;6.314;2023-03-01T15:02:27;16.73;;;11.70;;
3949;SDS011;53057;50.988;6.314;2023-03-01T15:04:56;15.33;;;10.97;;
3949;SDS011;53057;50.988;6.314;2023-03-01T15:07:28;27.03;;;11.70;;
3949;SDS011;53057;50.988;6.314;2023-03-01T15:09:55;15.77;;;10.57;;
3949;SDS011;53057;50.988;6.314;2023-03-01T15:14:55;16.77;;;9.97;;
3949;SDS011;53057;50.988;6.314;2023-03-01T15:17:38;14.30;;;10.00;;
3949;SDS011;53057;50.988;6.314;2023-03-01T15:20:18;18.57;;;9.90;;
3949;SDS011;53057;50.988;6.314;2023-03-01T15:22:48;17.90;;;10.47;;
3949;SDS011;53057;50.988;6.314;2023-03-01T15:25:18;15.50;;;10.63;;
3949;SDS011;53057;50.988;6.314;2023-03-01T15:27:46;17.60;;;11.23;;
3949;SDS011;53057;50.988;6.314;2023-03-01T15:30:17;14.30;;;10.47;;
3949;SDS011;53057;50.988;6.314;2023-03-01T15:32:44;14.60;;;10.87;;
3949;SDS011;53057;50.988;6.314;2023-03-01T15:37:57;15.40;;;10.90;;
3949;SDS011;53057;50.988;6.314;2023-03-01T15:40:27;15.10;;;11.03;;
3949;SDS011;53057;50.988;6.314;2023-03-01T15:42:58;15.30;;;10.83;;
3949;SDS011;53057;50.988;6.314;2023-03-01T15:45:26;16.10;;;11.43;;
3949;SDS011;53057;50.988;6.314;2023-03-01T15:47:57;15.40;;;11.60;;
3949;SDS011;53057;50.988;6.314;2023-03-01T15:50:29;19.23;;;11.87;;
3949;SDS011;53057;50.988;6.314;2023-03-01T15:52:57;23.23;;;12.10;;
3949;SDS011;53057;50.988;6.314;2023-03-01T15:55:25;15.23;;;11.53;;
3949;SDS011;53057;50.988;6.314;2023-03-01T15:58:08;16.97;;;12.33;;
3949;SDS011;53057;50.988;6.314;2023-03-01T16:00:36;25.27;;;13.00;;
3949;SDS011;53057;50.988;6.314;2023-03-01T16:03:03;27.47;;;13.20;;
3949;SDS011;53057;50.988;6.314;2023-03-01T16:05:31;19.50;;;12.43;;
3949;SDS011;53057;50.988;6.314;2023-03-01T16:07:58;22.10;;;12.27;;
3949;SDS011;53057;50.988;6.314;2023-03-01T16:10:25;23.33;;;12.80;;
3949;SDS011;53057;50.988;6.314;2023-03-01T16:12:52;19.50;;;12.60;;
3949;SDS011;53057;50.988;6.314;2023-03-01T16:15:26;23.83;;;12.37;;
3949;SDS011;53057;50.988;6.314;2023-03-01T16:17:56;23.07;;;13.03;;
3949;SDS011;53057;50.988;6.314;2023-03-01T16:20:24;20.57;;;12.87;;
3949;SDS011;53057;50.988;6.314;2023-03-01T16:22:54;17.63;;;11.87;;
3949;SDS011;53057;50.988;6.314;2023-03-01T16:25:21;24.37;;;12.80;;
3949;SDS011;53057;50.988;6.314;2023-03-01T16:27:49;22.47;;;12.70;;
3949;SDS011;53057;50.988;6.314;2023-03-01T16:30:17;24.73;;;11.97;;
3949;SDS011;53057;50.988;6.314;2023-03-01T16:32:45;24.70;;;12.53;;
3949;SDS011;53057;50.988;6.314;2023-03-01T16:35:12;38.23;;;14.13;;
3949;SDS011;53057;50.988;6.314;2023-03-01T16:37:40;34.10;;;13.63;;
3949;SDS011;53057;50.988;6.314;2023-03-01T16:40:11;21.13;;;12.13;;